This is the latest recevied weather packets stored in our database for station/object LRCL. If no packets are shown the sender has not sent any weather packets the latest 10 day(s).
| Time | Temp. | Humidity | Pressure | Rain* | Wind** | Luminosity | Snow |
|---|---|---|---|---|---|---|---|
| 1777930404 | 12.22° C | 54% | 1017 hPa | - | - | - | - |
| 1777929488 | 12.22° C | 54% | 1017 hPa | - | - | - | - |
| 1777928588 | 12.22° C | 54% | 1017 hPa | - | - | - | - |
| 1777925888 | 11.11° C | 58% | 1016 hPa | - | - | - | - |
| 1777924988 | 11.11° C | 58% | 1016 hPa | - | - | - | - |
| 1777923188 | 12.78° C | 51% | 1016 hPa | - | - | - | - |
| 1777922288 | 13.89° C | 48% | 1016 hPa | - | - | - | - |
| 1777921388 | 13.89° C | 48% | 1016 hPa | - | - | - | - |
| 1777919598 | 15° C | 45% | 1016 hPa | - | - | - | - |
| 1777918688 | 16.11° C | 45% | 1015 hPa | - | - | - | - |
| 1777917788 | 16.11° C | 45% | 1015 hPa | - | - | - | - |
| 1777915988 | 18.89° C | 35% | 1015 hPa | - | - | - | - |
| 1777915088 | 22.22° C | 27% | 1015 hPa | - | - | - | - |
| 1777914188 | 22.22° C | 27% | 1015 hPa | - | - | - | - |
| 1777913288 | 22.22° C | 29% | 1015 hPa | - | - | - | - |
| 1777912403 | 22.22° C | 29% | 1015 hPa | - | - | - | - |
| 1777911497 | 22.78° C | 25% | 1015 hPa | - | - | - | - |
| 1777909688 | 22.78° C | 25% | 1015 hPa | - | - | - | - |
| 1777908788 | 22.78° C | 25% | 1015 hPa | - | - | - | - |
| 1777907888 | 23.89° C | 24% | 1015 hPa | - | - | - | - |
| 1777906988 | 23.89° C | 24% | 1015 hPa | - | - | - | - |
| 1777906088 | 23.89° C | 22% | 1016 hPa | - | - | - | - |
| 1777905188 | 23.89° C | 22% | 1016 hPa | - | - | - | - |
| 1777904356 | 23.89° C | 24% | 1016 hPa | - | - | - | - |
| 1777903389 | 23.89° C | 24% | 1016 hPa | - | - | - | - |
* Rain since midnight (hover to see other rain measurements)
** Current wind speed in m/s (hover to see current wind gust speed)